createdAt,value
2019-02-15T00:01:37.185Z,7.50
2019-02-15T00:04:26.164Z,7.50
2019-02-15T00:07:15.014Z,7.40
2019-02-15T00:10:04.047Z,7.40
2019-02-15T00:12:53.192Z,7.40
2019-02-15T00:15:43.021Z,7.40
2019-02-15T00:18:41.988Z,7.40
2019-02-15T00:21:34.006Z,7.40
2019-02-15T00:24:23.196Z,7.40
2019-02-15T00:27:12.466Z,7.40
2019-02-15T00:30:02.119Z,7.30
2019-02-15T00:32:51.385Z,7.30
2019-02-15T00:35:40.402Z,7.30
2019-02-15T00:38:29.476Z,7.30
2019-02-15T00:40:59.668Z,7.30
2019-02-15T00:43:29.895Z,7.20
2019-02-15T00:46:08.669Z,7.20
2019-02-15T00:48:38.910Z,7.20
2019-02-15T00:52:02.165Z,7.20
2019-02-15T00:55:01.146Z,7.10
2019-02-15T00:58:12.000Z,7.10
2019-02-15T01:01:05.282Z,7.10
2019-02-15T01:04:09.693Z,7.10
2019-02-15T01:07:04.526Z,7.10
2019-02-15T01:10:11.578Z,7.10
2019-02-15T01:13:05.176Z,7.10
2019-02-15T01:15:53.969Z,7.00
2019-02-15T01:18:42.720Z,7.00
2019-02-15T01:21:12.804Z,7.00
2019-02-15T01:23:43.153Z,7.00
2019-02-15T01:26:31.230Z,7.00
2019-02-15T01:29:20.301Z,6.90
2019-02-15T01:32:31.046Z,6.90
2019-02-15T01:35:34.251Z,6.90
2019-02-15T01:38:33.669Z,6.90
2019-02-15T01:41:31.133Z,6.90
2019-02-15T01:44:29.087Z,6.80
2019-02-15T01:47:03.555Z,6.80
2019-02-15T01:49:33.782Z,6.80
2019-02-15T01:52:23.344Z,6.80
2019-02-15T01:55:12.070Z,6.80
2019-02-15T01:58:01.135Z,6.80
2019-02-15T02:00:50.388Z,6.80
2019-02-15T02:03:39.860Z,6.70
2019-02-15T02:06:28.376Z,6.70
2019-02-15T02:09:18.015Z,6.70
2019-02-15T02:12:07.632Z,6.70
2019-02-15T02:14:56.860Z,6.70
2019-02-15T02:17:45.877Z,6.70
2019-02-15T02:20:35.057Z,6.70
2019-02-15T02:23:24.309Z,6.70
2019-02-15T02:26:13.645Z,6.70
2019-02-15T02:29:02.867Z,6.70
2019-02-15T02:31:52.162Z,6.70
2019-02-15T02:34:22.473Z,6.60
2019-02-15T02:36:54.293Z,6.70
2019-02-15T02:39:25.210Z,6.70
2019-02-15T02:41:55.316Z,6.70
2019-02-15T02:44:44.266Z,6.70
2019-02-15T02:47:33.062Z,6.70
2019-02-15T02:50:23.784Z,6.70
2019-02-15T02:53:12.640Z,6.70
2019-02-15T02:56:02.393Z,6.70
2019-02-15T02:58:51.283Z,6.70
2019-02-15T03:01:39.936Z,6.70
2019-02-15T03:04:28.544Z,6.70
2019-02-15T03:07:19.025Z,6.70
2019-02-15T03:10:08.044Z,6.70
2019-02-15T03:12:56.721Z,6.80
2019-02-15T03:15:45.434Z,6.80
2019-02-15T03:18:34.725Z,6.80
2019-02-15T03:21:23.827Z,6.80
2019-02-15T03:24:13.011Z,6.80
2019-02-15T03:26:51.162Z,6.80
2019-02-15T03:29:40.097Z,6.80
2019-02-15T03:32:30.186Z,6.80
2019-02-15T03:35:20.594Z,6.80
2019-02-15T03:38:26.028Z,6.80
2019-02-15T03:41:29.046Z,6.80
2019-02-15T03:48:05.759Z,6.80
2019-02-15T03:50:54.786Z,6.80
2019-02-15T03:53:44.060Z,6.70
2019-02-15T03:56:33.610Z,6.70
2019-02-15T03:59:22.845Z,6.70
2019-02-15T04:02:12.092Z,6.70
2019-02-15T04:05:00.989Z,6.70
2019-02-15T04:07:50.215Z,6.70
2019-02-15T04:10:39.178Z,6.70
2019-02-15T04:13:28.140Z,6.70
2019-02-15T04:16:17.292Z,6.70
2019-02-15T04:19:06.283Z,6.70
2019-02-15T04:21:55.323Z,6.70
2019-02-15T04:24:44.343Z,6.70
2019-02-15T04:27:33.688Z,6.70
2019-02-15T04:30:22.391Z,6.70
2019-02-15T04:33:11.935Z,6.80
2019-02-15T04:36:01.433Z,6.70
2019-02-15T04:38:50.665Z,6.70
2019-02-15T04:41:39.500Z,6.70
2019-02-15T04:44:28.867Z,6.70
2019-02-15T04:47:18.150Z,6.70
2019-02-15T04:50:08.458Z,6.70
2019-02-15T04:52:57.790Z,6.70
2019-02-15T04:55:47.017Z,6.70
2019-02-15T04:58:36.428Z,6.70
2019-02-15T05:01:25.326Z,6.70
2019-02-15T05:04:14.263Z,6.70
2019-02-15T05:07:03.493Z,6.70
2019-02-15T05:09:52.237Z,6.60
2019-02-15T05:12:42.051Z,6.60
2019-02-15T05:15:31.189Z,6.60
2019-02-15T05:18:20.499Z,6.60
2019-02-15T05:21:09.796Z,6.60
2019-02-15T05:23:58.723Z,6.50
2019-02-15T05:26:47.817Z,6.50
2019-02-15T05:29:37.463Z,6.50
2019-02-15T05:32:26.625Z,6.50
2019-02-15T05:35:15.824Z,6.50
2019-02-15T05:38:05.077Z,6.50
2019-02-15T05:40:53.650Z,6.50
2019-02-15T05:43:43.125Z,6.50
2019-02-15T05:46:13.361Z,6.50
2019-02-15T05:49:03.275Z,6.50
2019-02-15T05:51:52.520Z,6.50
2019-02-15T05:54:42.022Z,6.40
2019-02-15T05:57:31.255Z,6.40
2019-02-15T06:00:20.724Z,6.40
2019-02-15T06:03:10.315Z,6.40
2019-02-15T06:05:59.998Z,6.40
2019-02-15T06:08:49.742Z,6.40
2019-02-15T06:11:39.535Z,6.40
2019-02-15T06:14:28.590Z,6.40
2019-02-15T06:17:17.598Z,6.40
2019-02-15T06:20:07.275Z,6.40
2019-02-15T06:22:55.998Z,6.40
2019-02-15T06:25:45.156Z,6.40
2019-02-15T06:28:34.257Z,6.40
2019-02-15T06:31:23.614Z,6.40
2019-02-15T06:34:12.802Z,6.40
2019-02-15T06:37:02.416Z,6.40
2019-02-15T06:39:51.513Z,6.40
2019-02-15T06:42:41.115Z,6.40
2019-02-15T06:45:30.073Z,6.50
2019-02-15T06:48:18.963Z,6.50
2019-02-15T06:51:07.924Z,6.50
2019-02-15T06:53:56.537Z,6.50
2019-02-15T06:56:45.403Z,6.50
2019-02-15T06:59:43.643Z,6.50
2019-02-15T07:02:51.666Z,6.50
2019-02-15T07:05:40.660Z,6.60
2019-02-15T07:08:26.505Z,6.60
2019-02-15T07:11:15.572Z,6.60
2019-02-15T07:14:04.351Z,6.60
2019-02-15T07:16:53.467Z,6.60
2019-02-15T07:19:43.785Z,6.70
2019-02-15T07:22:33.372Z,6.70
2019-02-15T07:25:22.509Z,6.70
2019-02-15T07:28:11.794Z,6.80
2019-02-15T07:31:02.048Z,6.80
2019-02-15T07:33:51.568Z,6.80
2019-02-15T07:36:41.236Z,6.80
2019-02-15T07:39:30.435Z,6.80
2019-02-15T07:42:21.152Z,6.80
2019-02-15T07:45:10.711Z,6.90
2019-02-15T07:47:59.363Z,6.90
2019-02-15T07:50:48.421Z,7.00
2019-02-15T07:53:38.041Z,7.00
2019-02-15T07:56:27.003Z,7.00
2019-02-15T07:59:16.007Z,7.00
2019-02-15T08:02:05.855Z,7.10
2019-02-15T08:04:55.516Z,7.10
2019-02-15T08:07:45.127Z,7.10
2019-02-15T08:10:34.177Z,7.20
2019-02-15T08:13:23.558Z,7.20
2019-02-15T08:16:13.315Z,7.30
2019-02-15T08:19:02.079Z,7.30
2019-02-15T08:21:51.040Z,7.30
2019-02-15T08:24:40.430Z,7.40
2019-02-15T08:27:31.434Z,7.40
2019-02-15T08:30:01.976Z,7.50
2019-02-15T08:32:51.171Z,7.60
2019-02-15T08:35:40.428Z,7.60
2019-02-15T08:38:29.288Z,7.70
2019-02-15T08:41:18.062Z,7.70
2019-02-15T08:44:07.308Z,7.80
2019-02-15T08:46:56.360Z,7.80
2019-02-15T08:49:45.542Z,7.90
2019-02-15T08:52:35.094Z,7.90
2019-02-15T08:55:24.724Z,7.90
2019-02-15T08:58:13.656Z,8.00
2019-02-15T09:01:05.330Z,8.00
2019-02-15T09:03:54.733Z,8.10
2019-02-15T09:06:44.420Z,8.10
2019-02-15T09:09:33.827Z,8.10
2019-02-15T09:12:22.435Z,8.20
2019-02-15T09:15:17.519Z,8.30
2019-02-15T09:18:06.262Z,8.30
2019-02-15T09:20:54.987Z,8.40
2019-02-15T09:23:45.764Z,8.40
2019-02-15T09:26:35.286Z,8.50
2019-02-15T09:29:24.215Z,8.50
2019-02-15T09:32:13.790Z,8.60
2019-02-15T09:35:02.984Z,8.60
2019-02-15T09:37:52.407Z,8.70
2019-02-15T09:40:42.156Z,8.70
2019-02-15T09:43:31.886Z,8.70
2019-02-15T09:46:21.743Z,8.70
2019-02-15T09:49:10.511Z,8.80
2019-02-15T09:51:59.969Z,8.80
2019-02-15T09:54:49.174Z,8.80
2019-02-15T09:57:38.257Z,8.90
2019-02-15T10:00:27.343Z,9.00
2019-02-15T10:03:17.109Z,9.00
2019-02-15T10:06:06.818Z,9.10
2019-02-15T10:08:55.985Z,9.20
2019-02-15T10:11:45.182Z,9.20
2019-02-15T10:14:34.400Z,9.20
2019-02-15T10:17:24.088Z,9.30
2019-02-15T10:20:13.760Z,9.40
2019-02-15T10:23:02.842Z,9.50
2019-02-15T10:25:52.119Z,9.50
2019-02-15T10:28:41.038Z,9.60
2019-02-15T10:31:30.104Z,9.60
2019-02-15T10:34:19.567Z,9.70
2019-02-15T10:37:09.569Z,9.80
2019-02-15T10:39:58.737Z,9.90
2019-02-15T10:42:47.854Z,10.00
2019-02-15T10:45:37.094Z,10.00
2019-02-15T10:48:26.273Z,10.20
2019-02-15T10:51:15.499Z,10.30
2019-02-15T10:54:04.825Z,10.30
2019-02-15T10:56:53.110Z,10.40
2019-02-15T10:59:42.547Z,10.50
2019-02-15T11:02:31.875Z,10.50
2019-02-15T11:05:20.902Z,10.60
2019-02-15T11:08:09.978Z,10.70
2019-02-15T11:10:59.469Z,10.80
2019-02-15T11:13:48.566Z,10.90
2019-02-15T11:16:37.237Z,11.00
2019-02-15T11:19:25.524Z,11.10
2019-02-15T11:22:14.325Z,11.20
2019-02-15T11:25:03.655Z,11.20
2019-02-15T11:27:53.055Z,11.30
2019-02-15T11:30:42.221Z,11.40
2019-02-15T11:33:31.019Z,11.50
2019-02-15T11:36:20.276Z,11.60
2019-02-15T11:39:09.617Z,11.60
2019-02-15T11:41:58.681Z,11.70
2019-02-15T11:44:47.994Z,11.80
2019-02-15T11:47:37.290Z,11.90
2019-02-15T11:50:26.571Z,11.90
2019-02-15T11:53:15.831Z,12.00
2019-02-15T11:56:05.122Z,12.10
2019-02-15T11:58:45.355Z,12.20
2019-02-15T12:01:34.904Z,12.20
2019-02-15T12:04:24.330Z,12.30
2019-02-15T12:07:15.534Z,12.40
2019-02-15T12:10:04.215Z,12.50
2019-02-15T12:12:54.143Z,12.60
2019-02-15T12:15:42.761Z,12.70
2019-02-15T12:18:32.211Z,12.70
2019-02-15T12:21:21.775Z,12.80
2019-02-15T12:24:10.924Z,12.90
2019-02-15T12:27:00.352Z,12.90
2019-02-15T12:29:50.057Z,13.00
2019-02-15T12:32:39.775Z,13.10
2019-02-15T12:35:28.493Z,13.10
2019-02-15T12:38:17.965Z,13.20
2019-02-15T12:41:07.269Z,13.30
2019-02-15T12:43:56.742Z,13.30
2019-02-15T12:46:46.190Z,13.40
2019-02-15T12:49:35.494Z,13.40
2019-02-15T12:52:24.544Z,13.50
2019-02-15T12:55:13.051Z,13.60
2019-02-15T12:57:43.176Z,13.60
2019-02-15T13:00:33.219Z,13.70
2019-02-15T13:03:22.194Z,13.70
2019-02-15T13:06:11.579Z,13.80
2019-02-15T13:09:00.736Z,13.80
2019-02-15T13:11:49.890Z,13.90
2019-02-15T13:14:39.053Z,13.90
2019-02-15T13:17:28.202Z,13.90
2019-02-15T13:20:17.958Z,13.80
2019-02-15T13:23:06.897Z,13.70
2019-02-15T13:25:56.168Z,13.70
2019-02-15T13:28:45.403Z,13.60
2019-02-15T13:31:34.435Z,13.50
2019-02-15T13:34:23.955Z,13.40
2019-02-15T13:37:13.494Z,13.30
2019-02-15T13:40:02.342Z,13.30
2019-02-15T13:42:51.721Z,13.30
2019-02-15T13:45:40.618Z,13.30
2019-02-15T13:48:30.058Z,13.30
2019-02-15T13:51:19.229Z,13.20
2019-02-15T13:54:08.198Z,13.20
2019-02-15T13:56:57.318Z,13.10
2019-02-15T13:59:45.973Z,13.20
2019-02-15T14:02:34.735Z,13.10
2019-02-15T14:05:23.969Z,13.10
2019-02-15T14:08:13.072Z,13.10
2019-02-15T14:11:02.439Z,13.10
2019-02-15T14:13:51.664Z,13.10
2019-02-15T14:16:40.379Z,13.10
2019-02-15T14:19:29.657Z,13.00
2019-02-15T14:22:19.069Z,13.00
2019-02-15T14:25:09.091Z,13.10
2019-02-15T14:27:59.079Z,13.10
2019-02-15T14:30:48.507Z,13.10
2019-02-15T14:33:37.405Z,13.10
2019-02-15T14:36:27.417Z,13.10
2019-02-15T14:39:16.393Z,13.10
2019-02-15T14:42:06.094Z,13.10
2019-02-15T14:44:54.668Z,13.10
2019-02-15T14:47:43.771Z,13.10
2019-02-15T14:50:33.140Z,13.10
2019-02-15T14:53:22.425Z,13.00
2019-02-15T14:56:11.826Z,13.00
2019-02-15T14:59:01.124Z,13.00
2019-02-15T15:01:50.428Z,13.00
2019-02-15T15:04:41.421Z,13.10
2019-02-15T15:07:31.303Z,13.20
2019-02-15T15:10:20.356Z,13.30
2019-02-15T15:13:09.233Z,13.40
2019-02-15T15:15:58.918Z,13.50
2019-02-15T15:18:47.987Z,13.60
2019-02-15T15:21:37.380Z,13.70
2019-02-15T15:24:28.243Z,13.80
2019-02-15T15:27:16.377Z,13.80
2019-02-15T15:30:06.451Z,13.90
2019-02-15T15:32:55.438Z,14.00
2019-02-15T15:35:44.775Z,14.00
2019-02-15T15:38:34.049Z,14.00
2019-02-15T15:41:23.418Z,14.10
2019-02-15T15:44:12.093Z,14.10
2019-02-15T15:47:01.803Z,14.10
2019-02-15T15:49:50.431Z,14.10
2019-02-15T15:52:39.830Z,14.10
2019-02-15T15:55:29.143Z,14.10
2019-02-15T15:58:18.796Z,14.10
2019-02-15T16:01:07.730Z,14.10
2019-02-15T16:03:56.621Z,14.10
2019-02-15T16:06:46.039Z,14.00
2019-02-15T16:09:35.305Z,14.00
2019-02-15T16:12:24.597Z,14.00
2019-02-15T16:15:14.058Z,13.90
2019-02-15T16:18:03.379Z,13.90
2019-02-15T16:20:52.943Z,13.80
2019-02-15T16:23:42.221Z,13.80
2019-02-15T16:26:31.253Z,13.70
2019-02-15T16:29:20.324Z,13.70
2019-02-15T16:32:09.397Z,13.70
2019-02-15T16:34:58.325Z,13.70
2019-02-15T16:37:47.860Z,13.60
2019-02-15T16:40:37.528Z,13.60
2019-02-15T16:43:26.249Z,13.60
2019-02-15T16:46:15.621Z,13.50
2019-02-15T16:49:04.657Z,13.50
2019-02-15T16:51:54.175Z,13.40
2019-02-15T16:54:43.380Z,13.30
2019-02-15T16:57:32.735Z,13.30
2019-02-15T17:00:21.680Z,13.20
2019-02-15T17:03:11.943Z,13.20
2019-02-15T17:06:00.745Z,13.10
2019-02-15T17:08:50.100Z,13.00
2019-02-15T17:11:39.823Z,12.90
2019-02-15T17:14:29.373Z,12.90
2019-02-15T17:17:18.478Z,12.80
2019-02-15T17:20:08.087Z,12.70
2019-02-15T17:22:56.961Z,12.70
2019-02-15T17:25:46.086Z,12.60
2019-02-15T17:28:35.577Z,12.60
2019-02-15T17:31:24.598Z,12.50
2019-02-15T17:34:13.847Z,12.40
2019-02-15T17:37:02.678Z,12.40
2019-02-15T17:39:51.926Z,12.40
2019-02-15T17:42:41.488Z,12.40
2019-02-15T17:45:31.266Z,12.50
2019-02-15T17:48:20.578Z,12.50
2019-02-15T17:51:09.359Z,12.50
2019-02-15T17:53:58.978Z,12.50
2019-02-15T17:56:48.302Z,12.40
2019-02-15T17:59:37.486Z,12.40
2019-02-15T18:02:26.582Z,12.40
2019-02-15T18:05:18.608Z,12.40
2019-02-15T18:08:08.233Z,12.30
2019-02-15T18:10:59.365Z,12.30
2019-02-15T18:13:48.497Z,12.30
2019-02-15T18:16:37.514Z,12.30
2019-02-15T18:19:26.818Z,12.20
2019-02-15T18:22:16.502Z,12.20
2019-02-15T18:25:05.730Z,12.10
2019-02-15T18:27:55.099Z,12.10
2019-02-15T18:30:44.280Z,12.10
2019-02-15T18:33:33.237Z,12.00
2019-02-15T18:36:22.438Z,12.00
2019-02-15T18:39:11.438Z,11.90
2019-02-15T18:42:00.914Z,11.90
2019-02-15T18:44:49.686Z,11.80
2019-02-15T18:47:38.667Z,11.80
2019-02-15T18:50:27.686Z,11.80
2019-02-15T18:53:17.138Z,11.80
2019-02-15T18:56:06.634Z,11.80
2019-02-15T18:58:56.484Z,11.80
2019-02-15T19:01:46.121Z,11.80
2019-02-15T19:04:35.290Z,11.70
2019-02-15T19:07:24.638Z,11.70
2019-02-15T19:10:15.884Z,11.60
2019-02-15T19:13:05.423Z,11.60
2019-02-15T19:15:54.686Z,11.60
2019-02-15T19:18:44.053Z,11.60
2019-02-15T19:21:33.844Z,11.50
2019-02-15T19:24:23.140Z,11.50
2019-02-15T19:27:12.107Z,11.40
2019-02-15T19:30:02.013Z,11.50
2019-02-15T19:32:51.278Z,11.40
2019-02-15T19:35:40.592Z,11.40
2019-02-15T19:38:30.214Z,11.40
2019-02-15T19:41:18.857Z,11.30
2019-02-15T19:44:08.333Z,11.30
2019-02-15T19:46:58.396Z,11.30
2019-02-15T19:49:47.687Z,11.30
2019-02-15T19:52:36.451Z,11.30
2019-02-15T19:55:26.337Z,11.20
2019-02-15T19:58:15.796Z,11.20
2019-02-15T20:01:05.532Z,11.20
2019-02-15T20:03:54.770Z,11.10
2019-02-15T20:06:44.106Z,11.10
2019-02-15T20:09:33.843Z,11.10
2019-02-15T20:12:23.634Z,11.10
2019-02-15T20:15:13.747Z,11.10
2019-02-15T20:18:02.923Z,11.00
2019-02-15T20:20:52.725Z,10.90
2019-02-15T20:23:42.319Z,10.90
2019-02-15T20:26:32.205Z,10.90
2019-02-15T20:29:21.322Z,10.90
2019-02-15T20:32:10.535Z,10.80
2019-02-15T20:34:59.236Z,10.80
2019-02-15T20:37:48.417Z,10.80
2019-02-15T20:40:37.806Z,10.80
2019-02-15T20:43:27.252Z,10.70
2019-02-15T20:46:16.709Z,10.70
2019-02-15T20:49:05.773Z,10.70
2019-02-15T20:51:54.758Z,10.60
2019-02-15T20:54:43.906Z,10.60
2019-02-15T20:57:33.498Z,10.60
2019-02-15T21:00:24.313Z,10.50
2019-02-15T21:03:13.668Z,10.50
2019-02-15T21:06:03.315Z,10.50
2019-02-15T21:08:52.751Z,10.50
2019-02-15T21:11:41.844Z,10.40
2019-02-15T21:14:31.120Z,10.40
2019-02-15T21:17:19.957Z,10.40
2019-02-15T21:20:11.156Z,10.30
2019-02-15T21:23:00.422Z,10.30
2019-02-15T21:25:49.780Z,10.30
2019-02-15T21:28:39.888Z,10.30
2019-02-15T21:31:28.693Z,10.30
2019-02-15T21:34:17.480Z,10.20
2019-02-15T21:37:07.256Z,10.20
2019-02-15T21:39:56.419Z,10.10
2019-02-15T21:42:45.821Z,10.10
2019-02-15T21:45:35.665Z,10.00
2019-02-15T21:48:24.934Z,10.10
2019-02-15T21:51:16.832Z,10.00
2019-02-15T21:54:05.981Z,10.00
2019-02-15T21:56:55.359Z,10.00
2019-02-15T21:59:44.386Z,10.00
2019-02-15T22:02:33.984Z,9.90
2019-02-15T22:05:23.631Z,9.90
2019-02-15T22:08:12.723Z,9.90
2019-02-15T22:11:01.827Z,9.90
2019-02-15T22:13:50.950Z,9.80
2019-02-15T22:16:40.686Z,9.80
2019-02-15T22:19:29.981Z,9.80
2019-02-15T22:22:19.087Z,9.80
2019-02-15T22:25:08.591Z,9.70
2019-02-15T22:27:57.801Z,9.70
2019-02-15T22:30:47.028Z,9.60
2019-02-15T22:33:36.319Z,9.60
2019-02-15T22:36:26.162Z,9.60
2019-02-15T22:39:15.860Z,9.60
2019-02-15T22:42:05.245Z,9.60
2019-02-15T22:44:54.373Z,9.50
2019-02-15T22:47:44.077Z,9.60
2019-02-15T22:50:36.184Z,9.50
2019-02-15T22:53:23.850Z,9.50
2019-02-15T22:56:13.623Z,9.50
2019-02-15T22:59:03.003Z,9.50
2019-02-15T23:01:53.089Z,9.50
2019-02-15T23:04:42.083Z,9.50
2019-02-15T23:07:31.280Z,9.50
2019-02-15T23:10:20.145Z,9.50
2019-02-15T23:13:09.510Z,9.40
2019-02-15T23:15:58.819Z,9.40
2019-02-15T23:18:48.177Z,9.40
2019-02-15T23:21:37.028Z,9.30
2019-02-15T23:24:26.178Z,9.30
2019-02-15T23:27:15.195Z,9.30
2019-02-15T23:30:04.917Z,9.30
2019-02-15T23:32:53.804Z,9.30
2019-02-15T23:35:43.354Z,9.30
2019-02-15T23:38:32.610Z,9.30
2019-02-15T23:41:21.464Z,9.30
2019-02-15T23:44:10.862Z,9.30
2019-02-15T23:47:00.262Z,9.30
2019-02-15T23:49:49.200Z,9.20
2019-02-15T23:52:38.074Z,9.20
2019-02-15T23:55:26.675Z,9.20
2019-02-15T23:58:16.004Z,9.20
